sensor_id;sensor_type;location;lat;lon;timestamp;pressure;altitude;pressure_sealevel;temperature;humidity
25638;BME280;13496;51.040;13.680;2023-04-27T00:00:16;100034.00;;;18.61;48.47
25638;BME280;13496;51.040;13.680;2023-04-27T00:05:18;100028.75;;;18.61;48.52
25638;BME280;13496;51.040;13.680;2023-04-27T00:10:20;100023.38;;;18.55;48.67
25638;BME280;13496;51.040;13.680;2023-04-27T00:15:22;100019.75;;;18.56;48.70
25638;BME280;13496;51.040;13.680;2023-04-27T00:20:23;100011.88;;;18.56;48.61
25638;BME280;13496;51.040;13.680;2023-04-27T00:25:25;100015.50;;;18.55;48.92
25638;BME280;13496;51.040;13.680;2023-04-27T00:30:27;100020.75;;;18.55;48.49
25638;BME280;13496;51.040;13.680;2023-04-27T00:35:29;100024.75;;;18.51;48.28
25638;BME280;13496;51.040;13.680;2023-04-27T00:40:33;100030.63;;;18.53;48.56
25638;BME280;13496;51.040;13.680;2023-04-27T00:45:40;100032.63;;;18.51;48.54
25638;BME280;13496;51.040;13.680;2023-04-27T00:50:42;100033.00;;;18.48;48.63
25638;BME280;13496;51.040;13.680;2023-04-27T00:55:44;100037.44;;;18.47;48.39
25638;BME280;13496;51.040;13.680;2023-04-27T01:00:45;100036.44;;;18.48;48.55
25638;BME280;13496;51.040;13.680;2023-04-27T01:05:49;100047.47;;;18.44;48.51
25638;BME280;13496;51.040;13.680;2023-04-27T01:10:50;100036.97;;;18.44;48.57
25638;BME280;13496;51.040;13.680;2023-04-27T01:15:52;100040.56;;;18.43;49.03
25638;BME280;13496;51.040;13.680;2023-04-27T01:20:54;100044.22;;;18.42;48.74
25638;BME280;13496;51.040;13.680;2023-04-27T01:25:56;100040.97;;;18.40;48.58
25638;BME280;13496;51.040;13.680;2023-04-27T01:30:57;100051.47;;;18.40;48.44
25638;BME280;13496;51.040;13.680;2023-04-27T01:36:00;100047.19;;;18.38;48.53
25638;BME280;13496;51.040;13.680;2023-04-27T01:41:04;100051.00;;;18.36;48.74
25638;BME280;13496;51.040;13.680;2023-04-27T01:46:06;100053.78;;;18.34;48.86
25638;BME280;13496;51.040;13.680;2023-04-27T01:51:08;100059.06;;;18.34;48.40
25638;BME280;13496;51.040;13.680;2023-04-27T01:56:10;100071.56;;;18.32;48.50
25638;BME280;13496;51.040;13.680;2023-04-27T02:01:12;100069.91;;;18.31;48.71
25638;BME280;13496;51.040;13.680;2023-04-27T02:06:14;100071.91;;;18.29;48.62
25638;BME280;13496;51.040;13.680;2023-04-27T02:11:15;100063.38;;;18.27;48.58
25638;BME280;13496;51.040;13.680;2023-04-27T02:16:17;100070.28;;;18.28;49.14
25638;BME280;13496;51.040;13.680;2023-04-27T02:21:19;100080.81;;;18.28;48.43
25638;BME280;13496;51.040;13.680;2023-04-27T02:26:21;100072.63;;;18.23;48.68
25638;BME280;13496;51.040;13.680;2023-04-27T02:31:24;100079.50;;;18.24;48.50
25638;BME280;13496;51.040;13.680;2023-04-27T02:36:25;100076.25;;;18.22;48.82
25638;BME280;13496;51.040;13.680;2023-04-27T02:41:32;100070.34;;;18.20;48.60
25638;BME280;13496;51.040;13.680;2023-04-27T02:46:34;100082.84;;;18.18;48.91
25638;BME280;13496;51.040;13.680;2023-04-27T02:51:36;100075.97;;;18.17;48.63
25638;BME280;13496;51.040;13.680;2023-04-27T02:56:37;100074.16;;;18.18;48.44
25638;BME280;13496;51.040;13.680;2023-04-27T03:01:39;100071.69;;;18.16;48.87
25638;BME280;13496;51.040;13.680;2023-04-27T03:06:40;100072.69;;;18.15;48.82
25638;BME280;13496;51.040;13.680;2023-04-27T03:11:42;100075.66;;;18.12;48.79
25638;BME280;13496;51.040;13.680;2023-04-27T03:16:44;100086.16;;;18.12;48.90
25638;BME280;13496;51.040;13.680;2023-04-27T03:21:48;100087.78;;;18.13;48.15
25638;BME280;13496;51.040;13.680;2023-04-27T03:26:50;100099.31;;;18.12;48.50
25638;BME280;13496;51.040;13.680;2023-04-27T03:31:52;100101.31;;;18.10;48.83
25638;BME280;13496;51.040;13.680;2023-04-27T03:36:54;100114.44;;;18.10;48.60
25638;BME280;13496;51.040;13.680;2023-04-27T03:41:56;100115.59;;;18.07;48.22
25638;BME280;13496;51.040;13.680;2023-04-27T03:46:58;100124.94;;;18.10;48.80
25638;BME280;13496;51.040;13.680;2023-04-27T03:52:00;100121.66;;;18.08;48.45
25638;BME280;13496;51.040;13.680;2023-04-27T03:57:02;100129.88;;;18.05;48.80
25638;BME280;13496;51.040;13.680;2023-04-27T04:02:04;100137.75;;;18.05;48.81
25638;BME280;13496;51.040;13.680;2023-04-27T04:07:06;100135.31;;;18.03;48.80
25638;BME280;13496;51.040;13.680;2023-04-27T04:12:08;100144.00;;;18.04;48.40
25638;BME280;13496;51.040;13.680;2023-04-27T04:17:10;100145.81;;;18.03;48.60
25638;BME280;13496;51.040;13.680;2023-04-27T04:22:12;100146.81;;;18.02;48.64
25638;BME280;13496;51.040;13.680;2023-04-27T04:27:13;100149.25;;;18.04;48.99
25638;BME280;13496;51.040;13.680;2023-04-27T04:32:15;100153.69;;;18.03;48.43
25638;BME280;13496;51.040;13.680;2023-04-27T04:37:18;100150.25;;;18.03;48.72
25638;BME280;13496;51.040;13.680;2023-04-27T04:42:20;100158.13;;;18.03;48.75
25638;BME280;13496;51.040;13.680;2023-04-27T04:47:22;100158.75;;;18.05;48.59
25638;BME280;13496;51.040;13.680;2023-04-27T04:52:24;100157.13;;;18.04;48.69
25638;BME280;13496;51.040;13.680;2023-04-27T04:57:26;100165.00;;;18.04;49.09
25638;BME280;13496;51.040;13.680;2023-04-27T05:02:27;100174.34;;;18.06;48.63
25638;BME280;13496;51.040;13.680;2023-04-27T05:07:29;100182.38;;;18.05;48.94
25638;BME280;13496;51.040;13.680;2023-04-27T05:12:31;100178.78;;;18.06;48.65
25638;BME280;13496;51.040;13.680;2023-04-27T05:17:32;100184.66;;;18.08;48.58
25638;BME280;13496;51.040;13.680;2023-04-27T05:22:34;100185.66;;;18.07;48.74
25638;BME280;13496;51.040;13.680;2023-04-27T05:27:35;100179.41;;;18.08;48.84
25638;BME280;13496;51.040;13.680;2023-04-27T05:32:37;100179.41;;;18.08;48.69
25638;BME280;13496;51.040;13.680;2023-04-27T05:37:39;100182.03;;;18.08;48.94
25638;BME280;13496;51.040;13.680;2023-04-27T05:42:41;100180.72;;;18.12;49.03
25638;BME280;13496;51.040;13.680;2023-04-27T05:47:43;100181.03;;;18.17;49.05
25638;BME280;13496;51.040;13.680;2023-04-27T05:52:44;100173.94;;;18.18;48.65
25638;BME280;13496;51.040;13.680;2023-04-27T05:57:46;100175.03;;;18.23;48.74
25638;BME280;13496;51.040;13.680;2023-04-27T06:02:48;100181.78;;;18.26;49.01
25638;BME280;13496;51.040;13.680;2023-04-27T06:07:50;100169.25;;;18.28;48.65
25638;BME280;13496;51.040;13.680;2023-04-27T06:12:52;100162.84;;;18.30;48.70
25638;BME280;13496;51.040;13.680;2023-04-27T06:17:53;100167.75;;;18.33;48.99
25638;BME280;13496;51.040;13.680;2023-04-27T06:22:56;100165.78;;;18.35;48.76
25638;BME280;13496;51.040;13.680;2023-04-27T06:27:58;100171.03;;;18.35;48.65
25638;BME280;13496;51.040;13.680;2023-04-27T06:33:00;100168.56;;;18.34;48.48
25638;BME280;13496;51.040;13.680;2023-04-27T06:38:01;100185.59;;;18.38;48.66
25638;BME280;13496;51.040;13.680;2023-04-27T06:43:03;100179.66;;;18.44;48.47
25638;BME280;13496;51.040;13.680;2023-04-27T06:48:05;100173.25;;;18.47;48.29
25638;BME280;13496;51.040;13.680;2023-04-27T06:53:06;100176.97;;;18.52;48.42
25638;BME280;13496;51.040;13.680;2023-04-27T06:58:08;100183.34;;;18.58;48.10
25638;BME280;13496;51.040;13.680;2023-04-27T07:03:10;100187.41;;;18.60;48.25
25638;BME280;13496;51.040;13.680;2023-04-27T07:08:12;100186.88;;;18.65;48.72
25638;BME280;13496;51.040;13.680;2023-04-27T07:13:13;100185.38;;;18.71;48.17
25638;BME280;13496;51.040;13.680;2023-04-27T07:18:15;100190.63;;;18.71;48.01
25638;BME280;13496;51.040;13.680;2023-04-27T07:23:16;100191.59;;;18.70;48.24
25638;BME280;13496;51.040;13.680;2023-04-27T07:28:18;100191.44;;;18.71;48.42
25638;BME280;13496;51.040;13.680;2023-04-27T07:33:20;100200.81;;;18.74;47.91
25638;BME280;13496;51.040;13.680;2023-04-27T07:38:22;100202.88;;;18.78;48.11
25638;BME280;13496;51.040;13.680;2023-04-27T07:43:24;100202.88;;;18.78;48.31
25638;BME280;13496;51.040;13.680;2023-04-27T07:48:27;100197.91;;;18.83;47.96
25638;BME280;13496;51.040;13.680;2023-04-27T07:53:34;100199.81;;;18.90;47.93
25638;BME280;13496;51.040;13.680;2023-04-27T07:58:36;100207.56;;;18.91;48.18
25638;BME280;13496;51.040;13.680;2023-04-27T08:03:38;100199.94;;;18.96;47.62
25638;BME280;13496;51.040;13.680;2023-04-27T08:08:40;100204.84;;;18.99;47.58
25638;BME280;13496;51.040;13.680;2023-04-27T08:13:41;100216.28;;;19.06;47.54
25638;BME280;13496;51.040;13.680;2023-04-27T08:18:43;100208.47;;;19.13;47.61
25638;BME280;13496;51.040;13.680;2023-04-27T08:23:45;100202.03;;;19.16;47.46
25638;BME280;13496;51.040;13.680;2023-04-27T08:28:46;100198.50;;;19.23;47.28
25638;BME280;13496;51.040;13.680;2023-04-27T08:33:50;100201.31;;;19.37;46.89
25638;BME280;13496;51.040;13.680;2023-04-27T08:38:52;100202.22;;;19.44;47.00
25638;BME280;13496;51.040;13.680;2023-04-27T08:43:54;100199.59;;;19.44;46.94
25638;BME280;13496;51.040;13.680;2023-04-27T08:48:56;100196.31;;;19.42;47.03
25638;BME280;13496;51.040;13.680;2023-04-27T08:53:58;100188.50;;;19.48;46.95
25638;BME280;13496;51.040;13.680;2023-04-27T08:59:00;100199.59;;;19.44;46.74
25638;BME280;13496;51.040;13.680;2023-04-27T09:04:04;100191.22;;;19.55;46.61
25638;BME280;13496;51.040;13.680;2023-04-27T09:09:07;100192.84;;;19.56;46.47
25638;BME280;13496;51.040;13.680;2023-04-27T09:14:21;100186.91;;;19.62;46.54
25638;BME280;13496;51.040;13.680;2023-04-27T09:19:28;100189.78;;;19.67;46.63
25638;BME280;13496;51.040;13.680;2023-04-27T09:24:29;100191.59;;;19.67;46.43
25638;BME280;13496;51.040;13.680;2023-04-27T09:29:37;100185.16;;;19.69;46.52
25638;BME280;13496;51.040;13.680;2023-04-27T09:34:39;100175.81;;;19.67;46.56
25638;BME280;13496;51.040;13.680;2023-04-27T09:39:44;100177.44;;;19.68;46.37
25638;BME280;13496;51.040;13.680;2023-04-27T09:44:46;100182.34;;;19.71;46.45
25638;BME280;13496;51.040;13.680;2023-04-27T09:49:48;100177.31;;;19.76;46.02
25638;BME280;13496;51.040;13.680;2023-04-27T09:54:53;100174.06;;;19.74;46.23
25638;BME280;13496;51.040;13.680;2023-04-27T10:10:41;100161.88;;;19.88;46.33
25638;BME280;13496;51.040;13.680;2023-04-27T10:15:43;100171.41;;;19.89;45.91
25638;BME280;13496;51.040;13.680;2023-04-27T10:20:45;100166.69;;;19.84;46.33
25638;BME280;13496;51.040;13.680;2023-04-27T10:25:47;100166.69;;;19.84;46.21
25638;BME280;13496;51.040;13.680;2023-04-27T10:30:49;100181.66;;;19.83;45.90
25638;BME280;13496;51.040;13.680;2023-04-27T10:35:56;100171.19;;;19.90;46.14
25638;BME280;13496;51.040;13.680;2023-04-27T10:41:00;100177.13;;;19.92;45.85
25638;BME280;13496;51.040;13.680;2023-04-27T10:46:07;100172.97;;;20.04;45.31
25638;BME280;13496;51.040;13.680;2023-04-27T10:51:14;100163.19;;;19.98;45.97
25638;BME280;13496;51.040;13.680;2023-04-27T10:56:17;100171.66;;;19.94;45.92
25638;BME280;13496;51.040;13.680;2023-04-27T11:01:23;100158.34;;;20.02;45.61
25638;BME280;13496;51.040;13.680;2023-04-27T11:06:25;100167.41;;;20.14;45.28
25638;BME280;13496;51.040;13.680;2023-04-27T11:11:28;100164.13;;;20.12;45.43
25638;BME280;13496;51.040;13.680;2023-04-27T11:16:30;100163.78;;;20.15;45.26
25638;BME280;13496;51.040;13.680;2023-04-27T11:21:33;100156.16;;;20.27;44.82
25638;BME280;13496;51.040;13.680;2023-04-27T11:26:34;100166.03;;;20.40;44.83
25638;BME280;13496;51.040;13.680;2023-04-27T11:31:43;100160.06;;;20.31;44.68
25638;BME280;13496;51.040;13.680;2023-04-27T11:37:02;100170.09;;;20.42;44.71
25638;BME280;13496;51.040;13.680;2023-04-27T11:47:19;100165.03;;;20.62;43.95
25638;BME280;13496;51.040;13.680;2023-04-27T11:52:26;100173.22;;;20.31;43.61
25638;BME280;13496;51.040;13.680;2023-04-27T11:57:30;100173.53;;;20.43;44.42
25638;BME280;13496;51.040;13.680;2023-04-27T12:02:32;100185.25;;;20.55;43.87
25638;BME280;13496;51.040;13.680;2023-04-27T12:07:34;100176.44;;;20.69;43.10
25638;BME280;13496;51.040;13.680;2023-04-27T12:12:36;100180.44;;;20.65;41.59
25638;BME280;13496;51.040;13.680;2023-04-27T12:17:38;100182.59;;;20.76;42.50
25638;BME280;13496;51.040;13.680;2023-04-27T12:22:40;100180.06;;;20.68;42.79
25638;BME280;13496;51.040;13.680;2023-04-27T12:27:42;100182.59;;;20.76;41.66
25638;BME280;13496;51.040;13.680;2023-04-27T12:32:44;100178.00;;;20.92;41.77
25638;BME280;13496;51.040;13.680;2023-04-27T12:37:46;100172.19;;;21.03;42.33
25638;BME280;13496;51.040;13.680;2023-04-27T12:42:48;100175.72;;;20.82;42.56
25638;BME280;13496;51.040;13.680;2023-04-27T12:47:50;100181.41;;;20.86;41.97
25638;BME280;13496;51.040;13.680;2023-04-27T12:52:53;100177.38;;;20.90;42.42
25638;BME280;13496;51.040;13.680;2023-04-27T12:57:55;100177.53;;;20.82;42.89
25638;BME280;13496;51.040;13.680;2023-04-27T13:02:58;100172.41;;;20.73;43.14
25638;BME280;13496;51.040;13.680;2023-04-27T13:08:00;100175.47;;;20.77;42.98
25638;BME280;13496;51.040;13.680;2023-04-27T13:13:02;100160.25;;;20.79;42.55
25638;BME280;13496;51.040;13.680;2023-04-27T13:18:04;100159.88;;;20.82;42.93
25638;BME280;13496;51.040;13.680;2023-04-27T13:23:06;100160.47;;;20.77;41.66
25638;BME280;13496;51.040;13.680;2023-04-27T13:28:08;100168.97;;;20.73;42.48
25638;BME280;13496;51.040;13.680;2023-04-27T13:33:10;100163.09;;;20.77;42.36
25638;BME280;13496;51.040;13.680;2023-04-27T13:38:15;100163.22;;;20.97;42.86
25638;BME280;13496;51.040;13.680;2023-04-27T13:43:17;100153.41;;;20.85;42.18
25638;BME280;13496;51.040;13.680;2023-04-27T13:48:18;100155.03;;;20.86;43.11
25638;BME280;13496;51.040;13.680;2023-04-27T13:53:20;100150.41;;;20.88;43.25
25638;BME280;13496;51.040;13.680;2023-04-27T13:58:26;100140.84;;;20.87;42.49
25638;BME280;13496;51.040;13.680;2023-04-27T14:03:29;100144.25;;;20.81;42.82
25638;BME280;13496;51.040;13.680;2023-04-27T14:08:31;100144.28;;;20.87;43.85
25638;BME280;13496;51.040;13.680;2023-04-27T14:13:32;100143.72;;;20.92;43.93
25638;BME280;13496;51.040;13.680;2023-04-27T14:18:34;100131.31;;;20.86;42.55
25638;BME280;13496;51.040;13.680;2023-04-27T14:23:36;100130.72;;;20.90;42.95
25638;BME280;13496;51.040;13.680;2023-04-27T14:28:39;100129.91;;;20.90;43.52
25638;BME280;13496;51.040;13.680;2023-04-27T14:33:41;100124.25;;;20.93;43.30
25638;BME280;13496;51.040;13.680;2023-04-27T14:38:42;100129.94;;;20.96;43.79
25638;BME280;13496;51.040;13.680;2023-04-27T14:43:44;100133.34;;;20.90;43.12
25638;BME280;13496;51.040;13.680;2023-04-27T14:48:48;100134.09;;;20.77;42.12
25638;BME280;13496;51.040;13.680;2023-04-27T14:53:49;100127.47;;;20.88;43.29
25638;BME280;13496;51.040;13.680;2023-04-27T14:58:51;100138.03;;;20.88;42.76
25638;BME280;13496;51.040;13.680;2023-04-27T15:03:55;100140.28;;;20.91;42.76
25638;BME280;13496;51.040;13.680;2023-04-27T15:08:58;100135.91;;;20.77;41.89
25638;BME280;13496;51.040;13.680;2023-04-27T15:14:00;100144.53;;;20.92;42.20
25638;BME280;13496;51.040;13.680;2023-04-27T15:19:02;100141.69;;;20.94;44.24
25638;BME280;13496;51.040;13.680;2023-04-27T15:24:04;100127.09;;;20.98;43.99
25638;BME280;13496;51.040;13.680;2023-04-27T15:29:06;100127.50;;;20.95;43.88
25638;BME280;13496;51.040;13.680;2023-04-27T15:34:07;100136.41;;;20.94;42.75
25638;BME280;13496;51.040;13.680;2023-04-27T15:39:09;100133.56;;;20.89;42.30
25638;BME280;13496;51.040;13.680;2023-04-27T15:44:11;100129.78;;;21.05;44.13
25638;BME280;13496;51.040;13.680;2023-04-27T15:49:12;100131.22;;;21.07;44.21
25638;BME280;13496;51.040;13.680;2023-04-27T15:54:16;100128.97;;;21.04;43.81
25638;BME280;13496;51.040;13.680;2023-04-27T15:59:18;100119.66;;;21.08;44.06
25638;BME280;13496;51.040;13.680;2023-04-27T16:04:19;100117.03;;;21.08;44.22
25638;BME280;13496;51.040;13.680;2023-04-27T16:09:22;100108.28;;;21.08;44.46
25638;BME280;13496;51.040;13.680;2023-04-27T16:14:23;100099.56;;;21.07;43.90
25638;BME280;13496;51.040;13.680;2023-04-27T16:19:25;100093.47;;;21.07;43.04
25638;BME280;13496;51.040;13.680;2023-04-27T16:24:28;100086.38;;;21.07;42.50
25638;BME280;13496;51.040;13.680;2023-04-27T16:29:31;100093.47;;;21.07;44.06
25638;BME280;13496;51.040;13.680;2023-04-27T16:34:33;100090.41;;;21.03;44.38
25638;BME280;13496;51.040;13.680;2023-04-27T16:39:34;100085.75;;;21.05;44.16
25638;BME280;13496;51.040;13.680;2023-04-27T16:44:36;100090.00;;;21.06;44.07
25638;BME280;13496;51.040;13.680;2023-04-27T16:49:41;100084.94;;;21.05;44.65
25638;BME280;13496;51.040;13.680;2023-04-27T16:54:43;100089.78;;;21.01;43.95
25638;BME280;13496;51.040;13.680;2023-04-27T16:59:45;100099.16;;;21.03;44.42
25638;BME280;13496;51.040;13.680;2023-04-27T17:04:46;100096.09;;;21.00;44.62
25638;BME280;13496;51.040;13.680;2023-04-27T17:09:48;100104.81;;;21.00;44.28
25638;BME280;13496;51.040;13.680;2023-04-27T17:14:50;100105.19;;;20.97;44.61
25638;BME280;13496;51.040;13.680;2023-04-27T17:19:52;100093.81;;;20.97;44.56
25638;BME280;13496;51.040;13.680;2023-04-27T17:24:53;100102.38;;;20.99;44.43
25638;BME280;13496;51.040;13.680;2023-04-27T17:29:55;100101.53;;;20.92;45.03
25638;BME280;13496;51.040;13.680;2023-04-27T17:34:57;100099.06;;;20.90;45.13
25638;BME280;13496;51.040;13.680;2023-04-27T17:39:59;100102.94;;;20.88;44.98
25638;BME280;13496;51.040;13.680;2023-04-27T17:45:00;100106.75;;;20.85;44.93
25638;BME280;13496;51.040;13.680;2023-04-27T17:50:02;100114.25;;;20.82;45.11
25638;BME280;13496;51.040;13.680;2023-04-27T17:55:04;100111.16;;;20.78;45.49
25638;BME280;13496;51.040;13.680;2023-04-27T18:00:06;100107.09;;;20.75;45.98
25638;BME280;13496;51.040;13.680;2023-04-27T18:05:11;100108.09;;;20.74;46.24
25638;BME280;13496;51.040;13.680;2023-04-27T18:10:13;100123.94;;;20.74;46.28
25638;BME280;13496;51.040;13.680;2023-04-27T18:15:14;100126.94;;;20.71;46.82
25638;BME280;13496;51.040;13.680;2023-04-27T18:20:16;100124.13;;;20.73;46.94
25638;BME280;13496;51.040;13.680;2023-04-27T18:25:18;100139.53;;;20.69;47.13
25638;BME280;13496;51.040;13.680;2023-04-27T18:30:20;100128.97;;;20.69;47.37
25638;BME280;13496;51.040;13.680;2023-04-27T18:35:22;100136.03;;;20.69;47.12
25638;BME280;13496;51.040;13.680;2023-04-27T18:40:24;100142.72;;;20.65;47.20
25638;BME280;13496;51.040;13.680;2023-04-27T18:45:26;100148.78;;;20.65;46.79
25638;BME280;13496;51.040;13.680;2023-04-27T18:50:28;100156.47;;;20.60;47.04
25638;BME280;13496;51.040;13.680;2023-04-27T18:55:29;100156.69;;;20.59;46.78
25638;BME280;13496;51.040;13.680;2023-04-27T19:00:31;100160.50;;;20.56;47.03
25638;BME280;13496;51.040;13.680;2023-04-27T19:05:34;100171.44;;;20.53;46.91
25638;BME280;13496;51.040;13.680;2023-04-27T19:10:36;100168.19;;;20.51;46.63
25638;BME280;13496;51.040;13.680;2023-04-27T19:15:41;100175.41;;;20.49;47.12
25638;BME280;13496;51.040;13.680;2023-04-27T19:20:43;100168.69;;;20.46;46.71
25638;BME280;13496;51.040;13.680;2023-04-27T19:25:45;100179.44;;;20.45;47.06
25638;BME280;13496;51.040;13.680;2023-04-27T19:30:50;100177.81;;;20.44;47.35
25638;BME280;13496;51.040;13.680;2023-04-27T19:35:51;100174.53;;;20.42;47.02
25638;BME280;13496;51.040;13.680;2023-04-27T19:40:53;100179.00;;;20.41;47.16
25638;BME280;13496;51.040;13.680;2023-04-27T19:45:55;100174.91;;;20.39;47.21
25638;BME280;13496;51.040;13.680;2023-04-27T19:50:57;100168.03;;;20.38;47.44
25638;BME280;13496;51.040;13.680;2023-04-27T19:55:58;100160.31;;;20.36;47.14
25638;BME280;13496;51.040;13.680;2023-04-27T20:01:00;100151.97;;;20.33;47.47
25638;BME280;13496;51.040;13.680;2023-04-27T20:06:02;100148.09;;;20.28;47.37
25638;BME280;13496;51.040;13.680;2023-04-27T20:11:04;100144.81;;;20.26;47.39
25638;BME280;13496;51.040;13.680;2023-04-27T20:16:05;100156.09;;;20.20;47.55
25638;BME280;13496;51.040;13.680;2023-04-27T20:21:10;100155.06;;;20.15;47.69
25638;BME280;13496;51.040;13.680;2023-04-27T20:26:12;100152.41;;;20.15;47.54
25638;BME280;13496;51.040;13.680;2023-04-27T20:31:13;100149.50;;;20.10;47.62
25638;BME280;13496;51.040;13.680;2023-04-27T20:36:15;100146.06;;;20.09;47.75
25638;BME280;13496;51.040;13.680;2023-04-27T20:41:17;100149.09;;;20.06;47.91
25638;BME280;13496;51.040;13.680;2023-04-27T20:46:19;100153.94;;;20.02;48.18
25638;BME280;13496;51.040;13.680;2023-04-27T20:51:21;100149.03;;;19.99;47.68
25638;BME280;13496;51.040;13.680;2023-04-27T20:56:24;100156.28;;;19.97;47.89
25638;BME280;13496;51.040;13.680;2023-04-27T21:01:26;100154.66;;;19.96;47.99
25638;BME280;13496;51.040;13.680;2023-04-27T21:06:28;100149.78;;;19.93;47.61
25638;BME280;13496;51.040;13.680;2023-04-27T21:11:30;100143.69;;;19.93;48.12
25638;BME280;13496;51.040;13.680;2023-04-27T21:16:31;100137.16;;;19.89;48.00
25638;BME280;13496;51.040;13.680;2023-04-27T21:21:33;100124.16;;;19.87;47.94
25638;BME280;13496;51.040;13.680;2023-04-27T21:26:35;100122.56;;;19.86;47.92
25638;BME280;13496;51.040;13.680;2023-04-27T21:31:37;100125.38;;;19.85;48.14
25638;BME280;13496;51.040;13.680;2023-04-27T21:36:38;100129.84;;;19.84;47.95
25638;BME280;13496;51.040;13.680;2023-04-27T21:41:40;100126.75;;;19.80;47.85
25638;BME280;13496;51.040;13.680;2023-04-27T21:46:42;100114.97;;;19.76;47.99
25638;BME280;13496;51.040;13.680;2023-04-27T21:51:44;100113.16;;;19.77;48.10
25638;BME280;13496;51.040;13.680;2023-04-27T21:56:45;100117.97;;;19.73;48.45
25638;BME280;13496;51.040;13.680;2023-04-27T22:01:48;100112.06;;;19.71;48.20
25638;BME280;13496;51.040;13.680;2023-04-27T22:06:50;100113.69;;;19.72;48.02
25638;BME280;13496;51.040;13.680;2023-04-27T22:11:51;100112.63;;;19.67;48.26
25638;BME280;13496;51.040;13.680;2023-04-27T22:16:53;100115.25;;;19.67;48.15
25638;BME280;13496;51.040;13.680;2023-04-27T22:21:56;100117.25;;;19.65;48.46
25638;BME280;13496;51.040;13.680;2023-04-27T22:26:57;100112.19;;;19.63;48.35
25638;BME280;13496;51.040;13.680;2023-04-27T22:31:59;100119.06;;;19.64;48.36
25638;BME280;13496;51.040;13.680;2023-04-27T22:37:01;100119.41;;;19.61;47.72
25638;BME280;13496;51.040;13.680;2023-04-27T22:42:02;100122.81;;;19.55;48.24
25638;BME280;13496;51.040;13.680;2023-04-27T22:47:04;100123.41;;;19.57;48.43
25638;BME280;13496;51.040;13.680;2023-04-27T22:52:06;100119.16;;;19.56;48.70
25638;BME280;13496;51.040;13.680;2023-04-27T22:57:08;100114.47;;;19.51;48.60
25638;BME280;13496;51.040;13.680;2023-04-27T23:02:10;100115.28;;;19.52;48.40
25638;BME280;13496;51.040;13.680;2023-04-27T23:07:12;100111.19;;;19.49;48.22
25638;BME280;13496;51.040;13.680;2023-04-27T23:12:17;100109.56;;;19.48;48.42
25638;BME280;13496;51.040;13.680;2023-04-27T23:17:19;100103.84;;;19.45;48.49
25638;BME280;13496;51.040;13.680;2023-04-27T23:22:23;100098.59;;;19.45;48.37
25638;BME280;13496;51.040;13.680;2023-04-27T23:27:25;100094.50;;;19.42;48.51
25638;BME280;13496;51.040;13.680;2023-04-27T23:32:28;100102.59;;;19.41;48.46
25638;BME280;13496;51.040;13.680;2023-04-27T23:37:30;100097.50;;;19.39;48.66
25638;BME280;13496;51.040;13.680;2023-04-27T23:42:31;100092.44;;;19.38;48.17
25638;BME280;13496;51.040;13.680;2023-04-27T23:47:33;100090.59;;;19.38;48.15
25638;BME280;13496;51.040;13.680;2023-04-27T23:52:35;100080.28;;;19.37;48.67
25638;BME280;13496;51.040;13.680;2023-04-27T23:57:37;100066.69;;;19.33;48.09
